Huvudsida
METAR-TAF:

METAR-TAF

Flygplatser :

Hamadan Airport

Hamadan, Iran

latitud: 34-52-05N, longitud: 048-33-08E, höjd: 1757 m

Aktuellt väderrapport

Denna rapport gjordes för 23 minuter sedan, klockan 04:00 UTC
Vind 4 kt från väst
Temperatur -1°C
Fuktighet 93%
Tryck 1017 hPa
Sikt: 2500 m
Få moln på en höjd av 3000 ft, Cumulonimbus.
Spridda moln på en höjd av 3500 ft
Mulet på en höjd av 8000 ft
lätt snö, fuktdis

METAR: OIHH 200400Z 26004KT 2500 -SN BR FEW030CB SCT035 OVC080 M01/M02 Q1017

Tid: 07:53 (04:23 UTC)


TAF: saknas

Aktuella väderrapporter och prognoser från 4000 flygplatser (METAR- och TAF-rapporter).

De tillgängliga stationerna syns som gula och röda prickar på kartan.

För musen över prickarna för att se namnen på stationerna.

Klicka sedan för att få väderrapporter och prognoser.

För att ändra kartan: Klicka på de gröna knapparna med ett svart kors på för att zooma in; den gröna knappen med ett streck på för att zooma ut; eller på de gröna pilarna för angränsande kartor.


METAR-TAF: